Time;durP1;ratioP1;P1;durP2;ratioP2;P2;SDS_P1;SDS_P2;PMS_P1;PMS_P2;Temp;Humidity;BMP_temperature;BMP_pressure;BME280_temperature;BME280_humidity;BME280_pressure;Samples;Min_cycle;Max_cycle;Signal;HPM_P1;HPM_P2
2021/01/05 06:02:20;;;;;;;47.00;14.87;;;1.00;97.30;;;;;;5221824;23;20504;-74
2021/01/05 06:04:46;;;;;;;50.07;15.53;;;1.00;97.30;;;;;;4914453;29;20937;-74
2021/01/05 06:07:12;;;;;;;52.90;16.30;;;1.00;97.30;;;;;;4916217;29;20843;-74
2021/01/05 06:09:38;;;;;;;45.90;16.00;;;1.00;97.30;;;;;;4915762;29;20452;-74
2021/01/05 06:12:06;;;;;;;43.43;14.47;;;1.00;97.30;;;;;;4901106;29;21012;-74
2021/01/05 06:14:32;;;;;;;43.17;16.07;;;1.00;97.30;;;;;;4896559;29;20204;-74
2021/01/05 06:16:58;;;;;;;41.30;14.97;;;1.00;97.30;;;;;;4897001;29;20434;-73
2021/01/05 06:19:24;;;;;;;41.73;14.07;;;1.00;97.30;;;;;;4897073;29;20793;-73
2021/01/05 06:21:49;;;;;;;47.30;17.20;;;1.00;97.30;;;;;;4896656;29;20617;-73
2021/01/05 06:24:15;;;;;;;45.33;15.10;;;1.00;97.30;;;;;;4897750;29;20216;-73
2021/01/05 06:26:41;;;;;;;60.10;18.40;;;1.00;97.30;;;;;;4898069;29;20207;-73
2021/01/05 06:29:07;;;;;;;54.77;16.90;;;1.00;97.30;;;;;;4897667;29;20185;-73
2021/01/05 06:31:32;;;;;;;55.60;18.47;;;1.00;97.30;;;;;;4896558;29;20730;-73
2021/01/05 06:33:58;;;;;;;53.73;18.93;;;1.00;97.30;;;;;;4897476;29;20208;-73
2021/01/05 06:36:24;;;;;;;62.50;21.80;;;1.00;97.30;;;;;;4897560;29;20248;-73
2021/01/05 06:38:50;;;;;;;66.10;19.43;;;1.00;97.30;;;;;;4899478;29;20552;-73
2021/01/05 06:41:15;;;;;;;73.07;18.27;;;1.00;97.30;;;;;;4904974;29;20730;-73
2021/01/05 06:43:41;;;;;;;63.83;20.10;;;0.90;97.30;;;;;;4904299;29;20448;-73
2021/01/05 06:46:09;;;;;;;64.37;19.20;;;1.00;97.30;;;;;;4902121;29;20177;-73
2021/01/05 06:48:35;;;;;;;73.47;23.20;;;0.90;97.30;;;;;;4904994;29;20713;-73
2021/01/05 06:51:05;;;;;;;72.13;22.63;;;0.90;97.30;;;;;;4906661;29;20441;-73
2021/01/05 06:53:31;;;;;;;74.33;22.83;;;0.90;97.30;;;;;;4903058;29;20422;-73
2021/01/05 06:55:57;;;;;;;74.07;21.10;;;0.90;97.30;;;;;;4906146;29;20519;-73
2021/01/05 06:58:23;;;;;;;70.90;21.60;;;0.90;97.30;;;;;;4904727;29;20429;-73
2021/01/05 07:00:48;;;;;;;66.40;19.10;;;0.90;97.30;;;;;;4904366;29;20200;-73
2021/01/05 07:03:14;;;;;;;70.77;20.60;;;0.90;97.30;;;;;;4905157;29;20184;-73
2021/01/05 07:05:40;;;;;;;61.67;18.90;;;1.00;97.30;;;;;;4907065;29;20194;-73
2021/01/05 07:08:05;;;;;;;69.93;20.17;;;1.00;97.30;;;;;;4904175;29;20547;-73
2021/01/05 07:10:31;;;;;;;60.67;18.43;;;1.00;97.30;;;;;;4905519;29;20177;-73
2021/01/05 07:12:57;;;;;;;59.70;20.03;;;1.00;97.30;;;;;;4905005;29;20193;-73
2021/01/05 07:15:22;;;;;;;69.60;20.00;;;1.00;97.30;;;;;;4904076;29;20484;-73
2021/01/05 07:17:48;;;;;;;63.27;21.00;;;1.00;97.30;;;;;;4910565;29;20191;-73
2021/01/05 07:20:15;;;;;;;50.93;18.03;;;1.00;97.30;;;;;;4908584;29;20180;-73
2021/01/05 07:22:41;;;;;;;56.43;19.17;;;1.00;97.30;;;;;;4907824;29;20175;-73
2021/01/05 07:25:10;;;;;;;63.40;20.90;;;1.00;97.30;;;;;;4910845;29;20431;-73
2021/01/05 07:27:35;;;;;;;65.53;20.00;;;1.00;97.30;;;;;;4906868;29;20220;-73
2021/01/05 07:30:01;;;;;;;61.10;20.07;;;1.00;97.30;;;;;;4910230;29;20448;-73
2021/01/05 07:32:27;;;;;;;68.70;22.77;;;1.00;97.30;;;;;;4908143;29;20199;-73
2021/01/05 07:34:53;;;;;;;62.87;19.20;;;1.00;97.30;;;;;;4909340;29;20461;-73
2021/01/05 07:37:24;;;;;;;65.53;21.67;;;1.00;97.30;;;;;;4909126;29;20191;-73
2021/01/05 07:39:49;;;;;;;70.87;21.97;;;1.00;97.30;;;;;;4909034;29;20173;-73
2021/01/05 07:42:25;;;;;;;70.53;19.53;;;1.00;97.30;;;;;;4907933;29;20969;-73
2021/01/05 07:44:53;;;;;;;58.20;19.27;;;1.00;97.30;;;;;;4908257;29;20736;-73
2021/01/05 07:47:22;;;;;;;53.80;19.00;;;1.00;97.30;;;;;;4909302;29;20424;-73
2021/01/05 07:49:48;;;;;;;59.57;18.77;;;1.00;97.30;;;;;;4906605;29;20418;-73
2021/01/05 07:52:35;;;;;;;51.93;17.27;;;1.00;97.30;;;;;;4909026;29;20516;-73
2021/01/05 07:55:19;;;;;;;61.60;20.30;;;1.00;97.30;;;;;;4907660;29;20445;-73
2021/01/05 07:57:46;;;;;;;59.27;18.93;;;1.00;97.30;;;;;;4908547;29;20417;-73
2021/01/05 08:00:15;;;;;;;54.83;20.20;;;1.00;97.30;;;;;;4907390;29;20425;-73
2021/01/05 08:02:41;;;;;;;67.07;21.70;;;1.00;97.30;;;;;;4908571;29;20437;-73
2021/01/05 08:05:08;;;;;;;57.83;20.97;;;1.00;97.30;;;;;;4903740;29;20433;-73
2021/01/05 08:07:34;;;;;;;55.10;19.80;;;1.00;97.30;;;;;;4905886;29;20190;-73
2021/01/05 08:09:59;;;;;;;66.20;19.30;;;1.10;97.30;;;;;;4909283;29;20473;-73
2021/01/05 08:12:25;;;;;;;56.50;19.77;;;1.10;97.30;;;;;;4906725;29;20201;-73
2021/01/05 08:14:51;;;;;;;62.70;19.87;;;1.10;97.30;;;;;;4908652;29;20304;-73
2021/01/05 08:17:17;;;;;;;47.50;17.00;;;1.10;97.30;;;;;;4906535;29;20224;-73
2021/01/05 08:19:44;;;;;;;60.60;18.73;;;1.10;97.30;;;;;;4909286;29;20456;-74
2021/01/05 08:22:11;;;;;;;50.37;19.03;;;1.10;97.30;;;;;;4907979;29;20212;-73
2021/01/05 08:24:36;;;;;;;63.17;20.23;;;1.10;97.30;;;;;;4906410;29;20414;-73
2021/01/05 08:27:02;;;;;;;66.80;19.47;;;1.10;97.30;;;;;;4916629;29;20427;-73
2021/01/05 08:29:29;;;;;;;57.23;17.37;;;1.10;97.30;;;;;;4917034;29;20433;-73
2021/01/05 08:31:55;;;;;;;58.43;18.93;;;1.10;97.30;;;;;;4908369;29;20962;-73
2021/01/05 08:34:20;;;;;;;58.53;19.67;;;1.10;97.30;;;;;;4907280;29;20981;-73
2021/01/05 08:36:46;;;;;;;55.93;18.63;;;1.10;97.30;;;;;;4909824;29;20414;-74
2021/01/05 08:39:13;;;;;;;52.33;20.13;;;1.10;97.30;;;;;;4902970;29;20202;-73
2021/01/05 08:41:43;;;;;;;62.83;17.57;;;1.10;97.30;;;;;;4898190;29;20200;-73
2021/01/05 08:44:12;;;;;;;55.87;18.77;;;1.10;97.30;;;;;;4897958;29;20436;-74
2021/01/05 08:46:40;;;;;;;62.30;19.80;;;1.10;97.30;;;;;;4897939;29;20428;-73
2021/01/05 08:49:05;;;;;;;61.03;18.37;;;1.10;97.30;;;;;;4897696;29;20426;-73
2021/01/05 08:51:32;;;;;;;57.60;18.60;;;1.10;97.30;;;;;;4898978;29;20496;-73
2021/01/05 08:53:58;;;;;;;55.33;19.47;;;1.10;97.30;;;;;;4901180;29;20307;-74
2021/01/05 08:56:28;;;;;;;64.03;19.43;;;1.10;97.30;;;;;;4905128;29;20518;-73
2021/01/05 08:58:54;;;;;;;63.07;17.67;;;1.20;97.30;;;;;;4905601;29;20185;-74
2021/01/05 09:01:20;;;;;;;53.80;18.10;;;1.20;97.30;;;;;;4908308;29;20544;-73
2021/01/05 09:03:46;;;;;;;59.90;19.10;;;1.20;97.30;;;;;;4906355;29;20585;-74
2021/01/05 09:06:18;;;;;;;60.93;19.50;;;1.10;97.30;;;;;;4908452;29;20507;-74
2021/01/05 09:08:46;;;;;;;49.60;19.03;;;1.10;97.30;;;;;;4908990;29;20184;-74
2021/01/05 09:11:27;;;;;;;57.53;18.07;;;1.10;97.30;;;;;;4907699;29;20545;-74
2021/01/05 09:13:52;;;;;;;63.20;18.97;;;1.10;97.30;;;;;;4906581;29;20556;-74
2021/01/05 09:16:31;;;;;;;50.67;19.07;;;1.10;97.30;;;;;;4904805;29;20508;-74
2021/01/05 09:18:58;;;;;;;53.80;16.73;;;1.10;97.30;;;;;;4908885;29;20204;-73
2021/01/05 09:21:27;;;;;;;54.57;19.57;;;1.10;97.30;;;;;;4907529;29;20442;-74
2021/01/05 09:23:54;;;;;;;55.63;19.43;;;1.10;97.30;;;;;;4905212;29;20413;-74
2021/01/05 09:26:29;;;;;;;63.57;18.67;;;1.10;97.30;;;;;;4907272;29;20417;-74
2021/01/05 09:28:55;;;;;;;54.20;17.10;;;1.10;97.30;;;;;;4906179;29;20507;-74
2021/01/05 09:31:22;;;;;;;58.20;18.27;;;1.10;97.30;;;;;;4904688;29;20483;-74
2021/01/05 09:33:48;;;;;;;50.90;16.63;;;1.10;97.30;;;;;;4907437;29;20184;-74
2021/01/05 09:36:16;;;;;;;47.27;16.50;;;1.10;97.30;;;;;;4905914;29;20424;-74
2021/01/05 09:38:43;;;;;;;44.03;16.00;;;1.20;97.30;;;;;;4905478;29;20417;-74
2021/01/05 09:41:24;;;;;;;44.17;16.50;;;1.20;97.30;;;;;;4905200;29;20433;-74
2021/01/05 09:43:50;;;;;;;45.47;14.90;;;1.20;97.30;;;;;;4909104;29;20425;-74
2021/01/05 09:46:19;;;;;;;41.67;15.70;;;1.20;97.30;;;;;;4907436;29;20420;-74
2021/01/05 09:48:44;;;;;;;44.03;16.67;;;1.20;97.30;;;;;;4906272;29;20424;-74
2021/01/05 09:51:10;;;;;;;42.00;16.07;;;1.20;97.30;;;;;;4917241;29;20522;-74
2021/01/05 09:53:39;;;;;;;40.03;15.13;;;1.20;97.30;;;;;;4899567;29;20220;-74
2021/01/05 09:56:05;;;;;;;42.50;16.10;;;1.20;97.30;;;;;;4896772;29;20666;-74
2021/01/05 09:58:31;;;;;;;55.40;20.70;;;1.20;97.30;;;;;;4896666;29;20458;-74
2021/01/05 10:00:56;;;;;;;38.57;14.37;;;1.20;97.30;;;;;;4896470;29;20496;-74
2021/01/05 10:03:22;;;;;;;44.50;17.00;;;1.30;97.30;;;;;;4896945;29;20181;-74
2021/01/05 10:05:48;;;;;;;45.73;15.97;;;1.30;97.30;;;;;;4898062;29;20196;-73
2021/01/05 10:08:14;;;;;;;51.23;16.30;;;1.30;97.30;;;;;;4896715;29;20200;-73
2021/01/05 10:10:39;;;;;;;38.27;15.93;;;1.30;97.30;;;;;;4896423;29;20445;-73
2021/01/05 10:13:05;;;;;;;44.00;16.00;;;1.30;97.30;;;;;;4896780;29;20185;-74
2021/01/05 10:15:31;;;;;;;38.53;13.97;;;1.30;97.30;;;;;;4897828;29;20242;-74
2021/01/05 10:17:56;;;;;;;33.70;13.97;;;1.30;97.30;;;;;;4896760;29;20271;-74
2021/01/05 10:20:22;;;;;;;37.70;13.70;;;1.30;97.30;;;;;;4897908;29;20203;-74
2021/01/05 10:22:49;;;;;;;40.07;14.60;;;1.30;97.30;;;;;;4896706;29;20674;-74
2021/01/05 10:25:16;;;;;;;37.00;15.80;;;1.30;97.30;;;;;;4896581;29;20513;-74
2021/01/05 10:27:41;;;;;;;39.63;14.60;;;1.30;97.30;;;;;;4896703;29;20436;-74
2021/01/05 10:30:10;;;;;;;31.47;12.57;;;1.30;97.30;;;;;;4898022;29;20793;-74
2021/01/05 10:32:36;;;;;;;39.57;13.97;;;1.30;97.30;;;;;;4896714;29;20553;-74
2021/01/05 10:35:03;;;;;;;29.17;13.67;;;1.40;97.30;;;;;;4895477;29;20960;-74
2021/01/05 10:37:29;;;;;;;36.33;14.80;;;1.40;97.30;;;;;;4888898;29;20438;-74
2021/01/05 10:39:55;;;;;;;35.53;14.13;;;1.40;97.30;;;;;;4878878;29;20861;-74
2021/01/05 10:42:20;;;;;;;41.07;16.03;;;1.40;97.30;;;;;;4879000;29;20205;-74
2021/01/05 10:44:46;;;;;;;34.87;13.43;;;1.40;97.30;;;;;;4879534;29;20249;-74
2021/01/05 10:47:14;;;;;;;35.40;13.33;;;1.40;97.30;;;;;;4877731;29;20189;-74
2021/01/05 10:49:41;;;;;;;37.80;12.90;;;1.40;97.30;;;;;;4878026;29;20590;-74
2021/01/05 10:52:14;;;;;;;32.10;13.03;;;1.40;97.30;;;;;;4880958;29;20454;-74
2021/01/05 10:54:40;;;;;;;39.40;14.87;;;1.40;97.30;;;;;;4882632;29;20484;-74
2021/01/05 10:57:06;;;;;;;35.17;13.07;;;1.40;97.30;;;;;;4880978;29;20423;-74
2021/01/05 10:59:33;;;;;;;29.97;11.90;;;1.30;97.30;;;;;;4891787;29;20181;-74
2021/01/05 11:02:02;;;;;;;35.93;12.87;;;1.30;97.30;;;;;;4899816;29;20461;-74
2021/01/05 11:04:28;;;;;;;38.30;12.80;;;1.30;97.30;;;;;;4900127;29;20852;-74
2021/01/05 11:06:56;;;;;;;32.13;12.80;;;1.30;97.30;;;;;;4899750;29;20504;-75
2021/01/05 11:09:22;;;;;;;29.67;13.73;;;1.30;97.30;;;;;;4902089;29;20480;-74
2021/01/05 11:11:55;;;;;;;32.67;13.20;;;1.40;97.30;;;;;;4900347;29;20449;-74
2021/01/05 11:14:21;;;;;;;30.63;12.47;;;1.30;97.30;;;;;;4900200;29;20465;-75
2021/01/05 11:16:47;;;;;;;31.73;12.83;;;1.30;97.30;;;;;;4899783;29;20501;-74
2021/01/05 11:19:14;;;;;;;35.37;13.67;;;1.40;97.30;;;;;;4899721;29;20185;-75
2021/01/05 11:21:40;;;;;;;36.80;13.90;;;1.40;97.30;;;;;;4900796;29;20433;-74
2021/01/05 11:24:06;;;;;;;45.60;14.43;;;1.40;97.30;;;;;;4899967;29;20440;-74
2021/01/05 11:26:36;;;;;;;34.90;13.43;;;1.30;97.30;;;;;;4899670;29;20439;-74
2021/01/05 11:29:03;;;;;;;36.93;13.57;;;1.30;97.30;;;;;;4899501;29;20445;-74
2021/01/05 11:31:30;;;;;;;36.77;13.80;;;1.30;97.30;;;;;;4899688;29;20958;-74
2021/01/05 11:33:55;;;;;;;46.33;14.83;;;1.30;97.30;;;;;;4899511;29;20446;-74
2021/01/05 11:36:29;;;;;;;40.33;12.20;;;1.30;97.30;;;;;;4900652;29;20885;-74
2021/01/05 11:38:56;;;;;;;38.07;14.63;;;1.30;97.30;;;;;;4899435;29;20643;-74
2021/01/05 11:41:26;;;;;;;43.00;15.60;;;1.30;97.30;;;;;;4899405;29;20528;-74
2021/01/05 11:43:52;;;;;;;35.13;13.63;;;1.30;97.30;;;;;;4900753;29;20505;-74
2021/01/05 11:46:18;;;;;;;38.67;13.50;;;1.30;97.30;;;;;;4899185;29;20501;-74
2021/01/05 11:48:44;;;;;;;37.60;12.73;;;1.30;97.30;;;;;;4900304;29;20821;-74
2021/01/05 11:51:19;;;;;;;46.30;14.23;;;1.40;97.30;;;;;;4900399;29;20493;-74
2021/01/05 11:53:45;;;;;;;37.90;13.47;;;1.40;97.30;;;;;;4900521;29;20204;-74
2021/01/05 11:56:45;;;;;;;33.77;12.03;;;1.40;97.30;;;;;;4902305;29;20471;-74
2021/01/05 11:59:13;;;;;;;37.27;13.80;;;1.40;97.30;;;;;;4900433;29;20222;-74
2021/01/05 12:01:40;;;;;;;35.23;13.63;;;1.40;97.30;;;;;;4899956;29;20479;-74
2021/01/05 12:04:09;;;;;;;40.33;13.97;;;1.40;97.30;;;;;;4898902;29;20421;-74
2021/01/05 12:06:35;;;;;;;37.83;13.67;;;1.40;97.30;;;;;;4898969;29;20504;-74
2021/01/05 12:09:01;;;;;;;46.10;13.80;;;1.40;97.30;;;;;;4898790;29;20524;-74
2021/01/05 12:11:32;;;;;;;36.43;13.47;;;1.40;97.30;;;;;;4899740;29;20287;-74
2021/01/05 12:13:59;;;;;;;32.53;12.93;;;1.40;97.30;;;;;;4898698;29;20999;-74
2021/01/05 12:16:37;;;;;;;33.70;12.40;;;1.40;97.30;;;;;;4898579;29;20456;-74
2021/01/05 12:19:06;;;;;;;34.67;12.40;;;1.30;97.30;;;;;;4899866;29;20501;-74
2021/01/05 12:21:38;;;;;;;34.23;12.53;;;1.30;97.30;;;;;;4898469;29;20476;-74
2021/01/05 12:24:24;;;;;;;35.83;13.47;;;1.30;97.30;;;;;;4898425;29;20990;-74
2021/01/05 12:26:51;;;;;;;35.30;16.10;;;1.30;97.30;;;;;;4899628;29;20418;-74
2021/01/05 12:29:19;;;;;;;30.83;12.80;;;1.30;97.30;;;;;;4898576;29;20414;-74
2021/01/05 12:31:51;;;;;;;33.33;12.50;;;1.30;97.30;;;;;;4898400;29;20437;-74
2021/01/05 12:34:20;;;;;;;38.20;13.77;;;1.30;97.30;;;;;;4898434;29;20457;-74
2021/01/05 12:36:45;;;;;;;29.83;12.50;;;1.30;97.30;;;;;;4898462;29;20417;-74
2021/01/05 12:39:18;;;;;;;35.90;13.60;;;1.30;97.30;;;;;;4898455;29;20851;-74
2021/01/05 12:41:44;;;;;;;28.40;12.13;;;1.30;97.30;;;;;;4898353;29;20255;-74
2021/01/05 12:44:14;;;;;;;40.10;15.33;;;1.30;97.30;;;;;;4898385;29;20933;-74
2021/01/05 12:46:40;;;;;;;39.90;16.10;;;1.30;97.30;;;;;;4898354;29;20425;-74
2021/01/05 12:49:07;;;;;;;31.37;13.90;;;1.30;97.30;;;;;;4899162;29;20456;-74
2021/01/05 12:51:36;;;;;;;31.83;13.87;;;1.30;97.30;;;;;;4898084;29;20370;-74
2021/01/05 12:54:02;;;;;;;29.33;12.77;;;1.30;97.30;;;;;;4898131;29;20414;-74
2021/01/05 12:56:28;;;;;;;29.80;12.30;;;1.30;97.30;;;;;;4898087;29;20424;-74
2021/01/05 12:58:54;;;;;;;30.13;12.13;;;1.30;97.30;;;;;;4897986;29;20453;-74
2021/01/05 13:01:20;;;;;;;32.60;12.80;;;1.30;97.30;;;;;;4897566;29;20987;-74
2021/01/05 13:03:47;;;;;;;35.03;13.33;;;1.30;97.30;;;;;;4897788;29;20185;-74
2021/01/05 13:06:14;;;;;;;32.50;12.07;;;1.30;97.30;;;;;;4897348;29;20532;-74
2021/01/05 13:08:41;;;;;;;33.93;12.70;;;1.30;97.30;;;;;;4884185;29;20438;-74
2021/01/05 13:11:13;;;;;;;27.73;11.57;;;1.30;97.30;;;;;;4879016;29;20475;-74
2021/01/05 13:13:39;;;;;;;30.93;11.97;;;1.30;97.30;;;;;;4878534;29;20850;-74
2021/01/05 13:16:21;;;;;;;34.20;12.77;;;1.20;97.30;;;;;;4878773;29;20516;-74
2021/01/05 13:18:47;;;;;;;32.20;13.43;;;1.20;97.30;;;;;;4907289;29;20912;-74
2021/01/05 13:21:22;;;;;;;35.47;14.30;;;1.20;97.30;;;;;;4898652;29;20485;-74
2021/01/05 13:23:48;;;;;;;30.00;12.90;;;1.20;97.30;;;;;;4897206;29;20438;-74
2021/01/05 13:26:13;;;;;;;32.07;12.20;;;1.20;97.30;;;;;;4897214;29;20796;-74
2021/01/05 13:28:43;;;;;;;38.77;13.10;;;1.20;97.30;;;;;;4897020;29;20721;-74
2021/01/05 13:31:09;;;;;;;32.70;12.77;;;1.20;97.30;;;;;;4897509;29;20200;-74
2021/01/05 13:33:34;;;;;;;32.30;12.50;;;1.30;97.30;;;;;;4897445;29;20428;-74
2021/01/05 13:36:00;;;;;;;31.53;12.40;;;1.20;97.30;;;;;;4898615;29;20858;-74
2021/01/05 13:38:28;;;;;;;39.43;12.80;;;1.30;97.30;;;;;;4897029;29;20264;-74
2021/01/05 13:40:54;;;;;;;32.40;11.93;;;1.20;97.30;;;;;;4896200;29;20213;-74
2021/01/05 13:43:20;;;;;;;32.43;12.20;;;1.20;97.30;;;;;;4897102;29;21057;-74
2021/01/05 13:45:45;;;;;;;28.40;12.20;;;1.20;97.30;;;;;;4896834;29;20951;-74
2021/01/05 13:48:11;;;;;;;32.17;11.33;;;1.20;97.30;;;;;;4898087;29;20730;-74
2021/01/05 13:50:37;;;;;;;33.00;11.03;;;1.20;97.30;;;;;;4897004;29;20556;-74
2021/01/05 13:53:03;;;;;;;24.47;10.70;;;1.20;97.30;;;;;;4893317;29;20225;-74
2021/01/05 13:55:28;;;;;;;28.50;11.50;;;1.20;97.30;;;;;;4895676;29;20197;-74
2021/01/05 13:57:54;;;;;;;33.60;11.90;;;1.20;97.30;;;;;;4896244;29;20177;-74
2021/01/05 14:00:20;;;;;;;38.93;11.60;;;1.20;97.30;;;;;;4905826;29;20173;-74
2021/01/05 14:02:46;;;;;;;31.57;11.10;;;1.20;97.30;;;;;;4906713;29;20605;-74
2021/01/05 14:05:13;;;;;;;33.70;11.17;;;1.20;97.30;;;;;;4907686;29;20212;-74
2021/01/05 14:07:40;;;;;;;31.10;10.63;;;1.20;97.30;;;;;;4904273;29;20436;-74
2021/01/05 14:10:08;;;;;;;34.60;11.10;;;1.20;97.30;;;;;;4903914;29;20515;-74
2021/01/05 14:12:34;;;;;;;32.00;9.97;;;1.20;97.30;;;;;;4902078;29;20464;-74
2021/01/05 14:15:04;;;;;;;32.73;10.27;;;1.20;97.30;;;;;;4905931;29;20456;-74
2021/01/05 14:17:29;;;;;;;33.93;10.33;;;1.20;97.30;;;;;;4907037;29;20414;-74
2021/01/05 14:19:55;;;;;;;26.00;11.23;;;1.20;97.30;;;;;;4906015;29;20409;-73
2021/01/05 14:22:22;;;;;;;36.90;10.63;;;1.20;97.30;;;;;;4901774;29;20407;-75
2021/01/05 14:24:49;;;;;;;33.70;10.67;;;1.20;97.30;;;;;;4900479;29;20433;-77
2021/01/05 14:27:16;;;;;;;27.37;10.00;;;1.20;97.30;;;;;;4905281;29;20427;-78
2021/01/05 14:29:43;;;;;;;33.27;10.90;;;1.20;97.30;;;;;;4908887;29;20420;-73
2021/01/05 14:32:10;;;;;;;33.33;10.40;;;1.20;97.30;;;;;;4908329;29;20433;-74
2021/01/05 14:34:37;;;;;;;26.57;10.10;;;1.20;97.30;;;;;;4908658;29;20461;-72
2021/01/05 14:37:06;;;;;;;31.10;11.03;;;1.20;97.30;;;;;;4908879;29;20930;-73
2021/01/05 14:39:33;;;;;;;28.50;10.47;;;1.20;97.30;;;;;;4913474;29;20413;-73
2021/01/05 14:42:05;;;;;;;37.13;11.27;;;1.20;97.30;;;;;;4912411;29;20437;-73
2021/01/05 14:44:38;;;;;;;26.00;9.97;;;1.20;97.30;;;;;;4900050;29;20429;-73
2021/01/05 14:47:10;;;;;;;30.80;10.20;;;1.20;97.30;;;;;;4900295;29;20421;-75
2021/01/05 14:49:37;;;;;;;26.53;10.77;;;1.20;97.30;;;;;;4899887;29;20429;-76
2021/01/05 14:52:06;;;;;;;28.27;11.20;;;1.20;97.30;;;;;;4899716;29;20500;-74
2021/01/05 14:54:33;;;;;;;26.80;9.67;;;1.20;97.30;;;;;;4899995;29;20488;-74
2021/01/05 14:56:59;;;;;;;30.07;11.37;;;1.20;97.30;;;;;;4900896;29;20414;-73
2021/01/05 14:59:25;;;;;;;24.00;9.60;;;1.20;97.30;;;;;;4902336;29;20432;-80
2021/01/05 15:01:52;;;;;;;25.40;10.30;;;1.20;97.30;;;;;;4908444;29;20492;-83
2021/01/05 15:04:18;;;;;;;30.00;10.47;;;1.20;97.30;;;;;;4904007;29;20576;-74
2021/01/05 15:06:44;;;;;;;27.70;10.33;;;1.20;97.30;;;;;;4900039;29;20421;-74
2021/01/05 15:09:15;;;;;;;31.10;10.53;;;1.20;97.30;;;;;;4899779;29;20844;-74
2021/01/05 15:11:41;;;;;;;29.73;10.77;;;1.20;97.30;;;;;;4899750;29;20209;-75
2021/01/05 15:14:11;;;;;;;32.47;12.60;;;1.20;97.30;;;;;;4899962;29;20436;-75
2021/01/05 15:16:38;;;;;;;35.37;11.80;;;1.20;97.30;;;;;;4901312;29;20429;-74
2021/01/05 15:19:04;;;;;;;34.47;11.90;;;1.30;97.30;;;;;;4901513;29;20413;-78
2021/01/05 15:21:30;;;;;;;34.23;12.67;;;1.30;97.30;;;;;;4907315;29;20544;-83
2021/01/05 15:23:55;;;;;;;32.60;11.90;;;1.30;97.30;;;;;;4903124;29;20213;-76
2021/01/05 15:26:23;;;;;;;32.10;12.53;;;1.20;97.30;;;;;;4899787;29;20429;-76
2021/01/05 15:28:49;;;;;;;32.77;12.27;;;1.20;97.30;;;;;;4912092;29;20211;-76
2021/01/05 15:31:15;;;;;;;27.83;10.50;;;1.20;97.30;;;;;;4918095;29;20445;-75
2021/01/05 15:33:40;;;;;;;32.27;10.43;;;1.20;97.30;;;;;;4900836;29;20422;-75
2021/01/05 15:36:08;;;;;;;29.20;11.27;;;1.20;97.30;;;;;;4899616;29;20464;-76
2021/01/05 15:38:34;;;;;;;41.20;12.43;;;1.20;97.30;;;;;;4899463;29;20181;-75
2021/01/05 15:41:01;;;;;;;41.27;14.50;;;1.30;97.30;;;;;;4899518;29;20438;-76
2021/01/05 15:43:27;;;;;;;42.33;13.47;;;1.30;97.30;;;;;;4899315;29;20429;-75
2021/01/05 15:45:53;;;;;;;33.93;12.80;;;1.30;97.30;;;;;;4899711;29;20421;-75
2021/01/05 15:48:18;;;;;;;50.10;13.00;;;1.30;97.30;;;;;;4899388;29;20267;-75
2021/01/05 15:50:44;;;;;;;44.83;14.37;;;1.30;97.30;;;;;;4900460;29;20197;-76
2021/01/05 15:53:11;;;;;;;32.83;12.90;;;1.30;97.30;;;;;;4899378;29;20444;-76
2021/01/05 15:55:39;;;;;;;46.50;13.57;;;1.30;97.30;;;;;;4899564;29;20461;-75
2021/01/05 15:58:09;;;;;;;45.20;12.77;;;1.30;97.30;;;;;;4900070;29;20410;-75
2021/01/05 16:00:35;;;;;;;45.10;12.20;;;1.30;97.30;;;;;;4898732;29;20440;-75
2021/01/05 16:03:02;;;;;;;46.50;12.00;;;1.30;97.30;;;;;;4899008;29;20509;-75
2021/01/05 16:05:28;;;;;;;53.07;14.63;;;1.30;97.30;;;;;;4899118;29;20460;-75
2021/01/05 16:07:56;;;;;;;53.53;15.53;;;1.30;97.30;;;;;;4899031;29;21011;-75
2021/01/05 16:10:23;;;;;;;52.43;13.93;;;1.30;97.30;;;;;;4900061;29;20434;-76
2021/01/05 16:12:49;;;;;;;40.23;14.50;;;1.30;97.30;;;;;;4898839;29;20414;-74
2021/01/05 16:15:17;;;;;;;51.03;15.53;;;1.20;97.30;;;;;;4900071;29;20461;-74
2021/01/05 16:17:43;;;;;;;60.10;15.50;;;1.30;97.30;;;;;;4898783;29;20193;-74
2021/01/05 16:20:10;;;;;;;46.50;13.67;;;1.20;97.30;;;;;;4898818;29;20417;-74
2021/01/05 16:22:36;;;;;;;55.77;15.60;;;1.30;97.30;;;;;;4899853;29;20517;-74
2021/01/05 16:25:04;;;;;;;39.17;13.90;;;1.30;97.30;;;;;;4899912;29;20417;-74
2021/01/05 16:27:29;;;;;;;43.53;12.40;;;1.30;97.30;;;;;;4899524;29;20792;-74
2021/01/05 16:29:55;;;;;;;40.90;13.43;;;1.30;97.30;;;;;;4897791;29;20429;-74
2021/01/05 16:32:21;;;;;;;37.77;13.43;;;1.30;97.30;;;;;;4897959;29;20301;-74
2021/01/05 16:34:48;;;;;;;49.43;12.70;;;1.30;97.30;;;;;;4898375;29;20548;-74
2021/01/05 16:37:14;;;;;;;41.37;13.30;;;1.30;97.30;;;;;;4899552;29;20212;-74
2021/01/05 16:39:39;;;;;;;40.13;13.13;;;1.30;97.30;;;;;;4898449;29;20853;-74
2021/01/05 16:42:06;;;;;;;44.70;13.90;;;1.30;97.30;;;;;;4898695;29;20205;-74
2021/01/05 16:44:31;;;;;;;42.53;14.70;;;1.30;97.30;;;;;;4898539;29;20209;-74
2021/01/05 16:46:57;;;;;;;50.63;15.17;;;1.30;97.30;;;;;;4898013;29;20468;-74
2021/01/05 16:49:24;;;;;;;42.23;13.67;;;1.30;97.30;;;;;;4897545;29;20245;-74
2021/01/05 16:51:50;;;;;;;35.13;12.80;;;1.30;97.30;;;;;;4898085;29;20448;-74
2021/01/05 16:54:16;;;;;;;31.80;11.27;;;1.30;97.30;;;;;;4897980;29;20785;-74
2021/01/05 16:56:42;;;;;;;36.23;13.00;;;1.30;97.30;;;;;;4899105;29;20651;-74
2021/01/05 16:59:08;;;;;;;39.77;14.47;;;1.30;97.30;;;;;;4899092;29;20418;-74
2021/01/05 17:01:48;;;;;;;34.33;11.93;;;1.30;97.30;;;;;;4897786;29;20637;-74
2021/01/05 17:04:15;;;;;;;36.83;12.83;;;1.30;97.30;;;;;;4899203;29;20413;-74
2021/01/05 17:06:42;;;;;;;35.40;13.10;;;1.30;97.30;;;;;;4899074;29;20417;-74
2021/01/05 17:09:18;;;;;;;31.00;10.97;;;1.30;97.30;;;;;;4897700;29;20413;-74
2021/01/05 17:11:44;;;;;;;33.53;11.63;;;1.40;97.30;;;;;;4897682;29;20477;-74
2021/01/05 17:14:10;;;;;;;32.70;12.03;;;1.40;97.30;;;;;;4898923;29;20413;-74
2021/01/05 17:16:45;;;;;;;32.67;12.57;;;1.40;97.30;;;;;;4897342;29;20500;-74
2021/01/05 17:19:11;;;;;;;31.67;11.53;;;1.40;97.30;;;;;;4897741;29;20492;-74
2021/01/05 17:21:36;;;;;;;32.93;12.33;;;1.40;97.30;;;;;;4898462;29;20927;-74
2021/01/05 17:24:02;;;;;;;31.43;12.60;;;1.40;97.30;;;;;;4898695;29;20208;-74
2021/01/05 17:26:29;;;;;;;34.57;12.90;;;1.40;97.30;;;;;;4897462;29;20244;-74
2021/01/05 17:28:55;;;;;;;37.40;13.30;;;1.40;97.30;;;;;;4897591;29;20436;-74
2021/01/05 17:31:22;;;;;;;35.37;12.77;;;1.40;97.30;;;;;;4897131;29;20997;-74
2021/01/05 17:33:47;;;;;;;33.60;12.70;;;1.40;97.30;;;;;;4897431;29;20540;-74
2021/01/05 17:36:13;;;;;;;37.60;13.17;;;1.40;97.30;;;;;;4897290;29;21010;-74
2021/01/05 17:38:40;;;;;;;36.17;12.13;;;1.40;97.30;;;;;;4897416;29;20212;-74
2021/01/05 17:41:06;;;;;;;33.43;12.40;;;1.40;97.30;;;;;;4898407;29;20489;-74
2021/01/05 17:43:32;;;;;;;36.30;12.70;;;1.50;97.30;;;;;;4898597;29;20252;-74
2021/01/05 17:45:59;;;;;;;43.97;12.73;;;1.50;97.30;;;;;;4897458;29;20525;-74
2021/01/05 17:48:26;;;;;;;45.73;14.90;;;1.50;97.30;;;;;;4899080;29;20418;-78
2021/01/05 17:50:52;;;;;;;35.90;12.90;;;1.50;97.30;;;;;;4899752;29;20466;-75
2021/01/05 17:53:19;;;;;;;41.93;13.30;;;1.50;97.30;;;;;;4897554;29;20440;-74
2021/01/05 17:55:45;;;;;;;43.33;14.07;;;1.50;97.30;;;;;;4897106;29;20987;-74
2021/01/05 17:58:11;;;;;;;42.70;14.67;;;1.50;97.30;;;;;;4897235;29;20421;-74
2021/01/05 18:00:37;;;;;;;39.73;13.33;;;1.50;97.30;;;;;;4879695;29;20269;-74
2021/01/05 18:03:04;;;;;;;41.17;12.87;;;1.50;97.30;;;;;;4878643;29;20427;-74
2021/01/05 18:05:30;;;;;;;40.20;14.03;;;1.50;97.30;;;;;;4879841;29;20422;-74
2021/01/05 18:07:58;;;;;;;39.60;13.77;;;1.50;97.30;;;;;;4878193;29;20422;-75
2021/01/05 18:10:31;;;;;;;35.57;13.47;;;1.60;97.30;;;;;;4894015;29;20927;-74
2021/01/05 18:12:58;;;;;;;43.40;14.80;;;1.50;97.30;;;;;;4878420;29;20517;-74
2021/01/05 18:15:26;;;;;;;35.07;13.57;;;1.50;97.30;;;;;;4878128;29;20468;-75
2021/01/05 18:17:53;;;;;;;42.00;13.93;;;1.60;97.30;;;;;;4878105;29;20505;-75
2021/01/05 18:20:22;;;;;;;51.03;14.30;;;1.60;97.30;;;;;;4893442;29;20458;-74
2021/01/05 18:22:48;;;;;;;49.97;16.17;;;1.60;97.30;;;;;;4877908;29;20510;-74
2021/01/05 18:25:16;;;;;;;52.10;16.70;;;1.60;97.30;;;;;;4879360;29;20426;-74
2021/01/05 18:27:43;;;;;;;51.67;15.50;;;1.60;97.30;;;;;;4879125;29;20509;-74
2021/01/05 18:30:09;;;;;;;56.90;15.20;;;1.60;97.30;;;;;;4879304;29;20473;-74
2021/01/05 18:32:35;;;;;;;62.03;15.07;;;1.60;97.30;;;;;;4877805;29;20450;-74
2021/01/05 18:35:04;;;;;;;59.50;15.17;;;1.60;97.30;;;;;;4879171;29;20924;-74
2021/01/05 18:37:33;;;;;;;55.37;15.47;;;1.60;97.30;;;;;;4879108;29;20491;-74
2021/01/05 18:39:59;;;;;;;75.77;17.17;;;1.60;97.30;;;;;;4879224;29;20791;-74